ENSK

Stokmarknes Skagen Airport

Hadsel, Norway
METAR ENSK 181320Z 36004KT 9999 VCSH FEW015 SCT040 BKN055 M04/M05 Q0996
Observed Flight Rules
Jan-18 @ 13:20 UTC (28 minutes ago) Visual Flight Rules
Wind Visibility Clouds
360° at 4 knots 10,000+ meters
  • Few at 1,500' AGL
  • Scattered at 4,000' AGL
  • Broken at 5,500' AGL
Temperatures Readings
Current -4°C / 25°F
Dewpoint -5°C / 23°F
Humidity 93%
Altimeter 29.41" Hg
Pressure 995.92 hPa
Elevation 3
METAR ENSK 181320Z 36004KT 9999 VCSH FEW015 SCT040 BKN055 M04/M05 Q0996
Observed Flight Rules
Jan-18 @ 13:20 UTC
(28 minutes ago)
VFR
Wind Visibility
360° at 4 knots 10,000+ meters
Clouds
  • Few at 1,500' AGL
  • Scattered at 4,000' AGL
  • Broken at 5,500' AGL
Temperature Dewpoint
-4°C / 25°F -5°C / 23°F
Humidity Altimeter Pressure
93% 29.41" Hg 995.92 hPa